createdAt,value
2022-10-23T00:01:26.567Z,19.83
2022-10-23T00:04:08.138Z,18.80
2022-10-23T00:09:02.524Z,18.52
2022-10-23T00:11:31.508Z,18.65
2022-10-23T00:16:27.246Z,18.40
2022-10-23T00:18:53.917Z,21.63
2022-10-23T00:21:20.797Z,32.47
2022-10-23T00:23:47.921Z,18.35
2022-10-23T00:26:15.882Z,17.77
2022-10-23T00:28:47.652Z,20.30
2022-10-23T00:31:14.728Z,19.00
2022-10-23T00:33:42.331Z,17.13
2022-10-23T00:36:11.159Z,16.10
2022-10-23T00:38:37.819Z,16.83
2022-10-23T00:41:05.796Z,17.30
2022-10-23T00:43:33.325Z,18.83
2022-10-23T00:45:59.993Z,23.88
2022-10-23T00:48:28.113Z,17.63
2022-10-23T00:50:55.236Z,18.38
2022-10-23T00:53:22.260Z,19.83
2022-10-23T00:55:50.808Z,20.60
2022-10-23T00:58:19.100Z,19.52
2022-10-23T01:00:56.315Z,19.38
2022-10-23T01:03:26.818Z,20.05
2022-10-23T01:06:35.160Z,19.65
2022-10-23T01:09:08.208Z,16.60
2022-10-23T01:11:54.707Z,16.52
2022-10-23T01:15:03.098Z,19.15
2022-10-23T01:17:55.770Z,18.20
2022-10-23T01:20:34.444Z,16.60
2022-10-23T01:23:23.480Z,20.33
2022-10-23T01:25:55.669Z,19.98
2022-10-23T01:28:30.987Z,19.58
2022-10-23T01:33:28.589Z,20.63
2022-10-23T01:36:04.514Z,19.85
2022-10-23T01:38:47.745Z,23.02
2022-10-23T01:41:22.406Z,24.17
2022-10-23T01:43:56.233Z,21.88
2022-10-23T01:46:23.969Z,21.30
2022-10-23T01:48:54.956Z,24.50
2022-10-23T01:51:24.891Z,20.15
2022-10-23T01:53:53.080Z,23.20
2022-10-23T01:56:27.274Z,20.88
2022-10-23T01:58:55.669Z,22.65
2022-10-23T02:01:23.959Z,22.42
2022-10-23T02:03:51.322Z,24.55
2022-10-23T02:06:18.076Z,25.30
2022-10-23T02:08:44.887Z,23.90
2022-10-23T02:11:14.556Z,29.27
2022-10-23T02:13:45.712Z,21.85
2022-10-23T02:16:34.093Z,28.45
2022-10-23T02:19:00.682Z,19.08
2022-10-23T02:21:58.841Z,23.45
2022-10-23T02:24:34.534Z,21.67
2022-10-23T02:27:03.489Z,22.70
2022-10-23T02:29:31.297Z,21.42
2022-10-23T02:31:57.987Z,18.88
2022-10-23T02:34:24.625Z,26.70
2022-10-23T02:36:51.308Z,22.95
2022-10-23T02:39:18.010Z,22.98
2022-10-23T02:41:48.326Z,25.25
2022-10-23T02:44:39.420Z,23.30
2022-10-23T02:47:05.992Z,24.50
2022-10-23T02:50:22.585Z,28.85
2022-10-23T02:53:27.028Z,27.10
2022-10-23T02:55:53.634Z,23.35
2022-10-23T02:58:45.146Z,31.80
2022-10-23T03:01:15.839Z,29.40
2022-10-23T03:04:11.893Z,31.77
2022-10-23T03:06:38.543Z,37.67
2022-10-23T03:09:09.800Z,36.33
2022-10-23T03:11:36.800Z,37.88
2022-10-23T03:14:03.568Z,37.20
2022-10-23T03:16:30.199Z,39.70
2022-10-23T03:18:56.802Z,35.20
2022-10-23T03:21:23.447Z,32.85
2022-10-23T03:23:50.118Z,34.72
2022-10-23T03:26:16.772Z,37.17
2022-10-23T03:28:43.446Z,35.20
2022-10-23T03:31:10.136Z,40.03
2022-10-23T03:33:36.839Z,45.90
2022-10-23T03:36:03.620Z,33.95
2022-10-23T03:38:30.421Z,34.17
2022-10-23T03:40:57.119Z,38.22
2022-10-23T03:43:23.757Z,37.40
2022-10-23T03:45:52.067Z,36.17
2022-10-23T03:48:18.719Z,48.67
2022-10-23T03:50:45.334Z,29.60
2022-10-23T03:53:11.953Z,32.20
2022-10-23T03:55:38.583Z,50.42
2022-10-23T03:58:05.245Z,41.85
2022-10-23T04:00:31.933Z,36.90
2022-10-23T04:02:58.592Z,37.00
2022-10-23T04:05:25.229Z,40.95
2022-10-23T04:07:51.964Z,35.13
2022-10-23T04:10:18.690Z,33.25
2022-10-23T04:12:46.154Z,35.67
2022-10-23T04:15:12.820Z,40.60
2022-10-23T04:17:39.502Z,34.90
2022-10-23T04:20:06.289Z,32.83
2022-10-23T04:22:32.908Z,41.78
2022-10-23T04:24:59.567Z,54.92
2022-10-23T04:27:26.183Z,43.20
2022-10-23T04:29:55.497Z,46.03
2022-10-23T04:32:24.893Z,54.28
2022-10-23T04:34:51.551Z,32.03
2022-10-23T04:37:18.197Z,33.65
2022-10-23T04:39:44.822Z,40.60
2022-10-23T04:42:11.466Z,47.65
2022-10-23T04:44:38.106Z,34.78
2022-10-23T04:47:04.830Z,30.92
2022-10-23T04:49:31.506Z,26.70
2022-10-23T04:51:58.228Z,32.80
2022-10-23T04:54:24.902Z,25.70
2022-10-23T04:56:51.559Z,22.00
2022-10-23T04:59:18.188Z,24.77
2022-10-23T05:01:44.850Z,33.75
2022-10-23T05:04:11.972Z,29.98
2022-10-23T05:06:38.614Z,41.95
2022-10-23T05:09:05.231Z,34.28
2022-10-23T05:11:31.895Z,26.13
2022-10-23T05:13:58.512Z,25.83
2022-10-23T05:16:44.772Z,25.05
2022-10-23T05:19:15.143Z,21.52
2022-10-23T05:21:41.833Z,29.52
2022-10-23T05:24:08.758Z,25.17
2022-10-23T05:26:35.380Z,23.83
2022-10-23T05:29:01.996Z,26.85
2022-10-23T05:31:28.699Z,22.75
2022-10-23T05:33:55.581Z,27.40
2022-10-23T05:36:23.137Z,26.88
2022-10-23T05:38:49.906Z,25.08
2022-10-23T05:41:16.691Z,25.13
2022-10-23T05:43:43.425Z,25.42
2022-10-23T05:46:10.084Z,29.40
2022-10-23T05:48:36.724Z,23.88
2022-10-23T05:51:05.345Z,23.92
2022-10-23T05:53:32.145Z,19.50
2022-10-23T05:56:04.849Z,24.20
2022-10-23T05:58:31.578Z,25.38
2022-10-23T06:00:58.260Z,30.20
2022-10-23T06:03:25.023Z,32.40
2022-10-23T06:05:52.100Z,25.48
2022-10-23T06:08:19.171Z,22.45
2022-10-23T06:10:45.784Z,29.02
2022-10-23T06:13:12.463Z,20.27
2022-10-23T06:15:39.072Z,21.90
2022-10-23T06:18:06.014Z,28.23
2022-10-23T06:20:36.076Z,30.42
2022-10-23T06:23:03.174Z,27.45
2022-10-23T06:25:29.845Z,56.58
2022-10-23T06:27:56.560Z,28.70
2022-10-23T06:30:23.607Z,32.05
2022-10-23T06:32:50.766Z,31.00
2022-10-23T06:35:17.652Z,29.83
2022-10-23T06:37:44.298Z,24.75
2022-10-23T06:40:11.156Z,28.27
2022-10-23T06:42:37.771Z,18.65
2022-10-23T06:45:07.160Z,20.80
2022-10-23T06:47:34.007Z,38.90
2022-10-23T06:50:00.695Z,22.23
2022-10-23T06:52:47.878Z,18.83
2022-10-23T06:55:15.030Z,23.73
2022-10-23T06:57:42.276Z,44.53
2022-10-23T07:00:10.181Z,49.78
2022-10-23T07:02:36.895Z,54.22
2022-10-23T07:05:04.098Z,63.28
2022-10-23T07:07:31.004Z,56.05
2022-10-23T07:09:57.667Z,31.25
2022-10-23T07:12:24.364Z,62.72
2022-10-23T07:14:51.024Z,52.25
2022-10-23T07:17:17.725Z,28.67
2022-10-23T07:19:44.369Z,93.35
2022-10-23T07:22:13.429Z,47.47
2022-10-23T07:24:42.539Z,59.53
2022-10-23T07:27:09.216Z,42.17
2022-10-23T07:29:35.919Z,33.20
2022-10-23T07:32:02.711Z,34.78
2022-10-23T07:34:29.437Z,28.67
2022-10-23T07:36:57.050Z,43.90
2022-10-23T07:39:24.136Z,28.30
2022-10-23T07:41:50.790Z,36.67
2022-10-23T07:44:17.971Z,31.60
2022-10-23T07:46:44.610Z,42.97
2022-10-23T07:49:11.445Z,30.80
2022-10-23T07:51:38.208Z,31.83
2022-10-23T07:54:04.914Z,27.20
2022-10-23T07:56:31.805Z,21.13
2022-10-23T07:58:58.444Z,24.48
2022-10-23T08:01:25.136Z,25.40
2022-10-23T08:03:51.860Z,26.50
2022-10-23T08:06:18.504Z,33.35
2022-10-23T08:11:20.394Z,27.15
2022-10-23T08:13:47.029Z,24.63
2022-10-23T08:16:13.668Z,24.67
2022-10-23T08:18:42.715Z,20.90
2022-10-23T08:21:10.239Z,20.92
2022-10-23T08:23:36.961Z,22.35
2022-10-23T08:26:05.705Z,20.42
2022-10-23T08:30:59.246Z,17.75
2022-10-23T08:33:26.052Z,15.30
2022-10-23T08:35:52.745Z,16.85
2022-10-23T08:38:19.444Z,15.57
2022-10-23T08:40:48.020Z,23.23
2022-10-23T08:43:37.813Z,17.67
2022-10-23T08:46:16.919Z,17.13
2022-10-23T08:48:45.994Z,21.70
2022-10-23T08:51:37.148Z,16.55
2022-10-23T08:54:15.114Z,15.02
2022-10-23T08:56:43.256Z,14.70
2022-10-23T08:59:28.514Z,19.50
2022-10-23T09:02:13.197Z,13.68
2022-10-23T09:04:40.615Z,16.75
2022-10-23T09:07:13.065Z,19.67
2022-10-23T09:09:52.922Z,13.80
2022-10-23T09:12:24.985Z,16.17
2022-10-23T09:15:13.255Z,15.55
2022-10-23T09:17:41.815Z,18.40
2022-10-23T09:20:19.537Z,18.80
2022-10-23T09:22:48.449Z,27.75
2022-10-23T09:25:22.257Z,13.75
2022-10-23T09:27:55.705Z,17.92
2022-10-23T09:30:28.319Z,20.67
2022-10-23T09:32:55.137Z,24.38
2022-10-23T09:35:24.181Z,16.50
2022-10-23T09:37:53.394Z,12.52
2022-10-23T09:40:29.092Z,14.63
2022-10-23T09:42:59.294Z,19.17
2022-10-23T09:45:29.894Z,15.98
2022-10-23T09:48:17.454Z,27.88
2022-10-23T09:50:55.722Z,16.20
2022-10-23T09:53:47.176Z,11.73
2022-10-23T09:56:28.234Z,17.38
2022-10-23T09:59:21.899Z,12.73
2022-10-23T10:01:57.971Z,11.25
2022-10-23T10:04:36.218Z,17.48
2022-10-23T10:07:05.956Z,16.15
2022-10-23T10:09:32.951Z,18.27
2022-10-23T10:12:10.804Z,11.55
2022-10-23T10:15:15.683Z,11.13
2022-10-23T10:18:10.041Z,22.50
2022-10-23T10:20:51.915Z,19.40
2022-10-23T10:23:42.637Z,17.05
2022-10-23T10:26:27.920Z,15.68
2022-10-23T10:29:04.312Z,16.63
2022-10-23T10:31:50.764Z,13.50
2022-10-23T10:34:30.264Z,10.70
2022-10-23T10:37:22.230Z,12.43
2022-10-23T10:40:09.781Z,9.30
2022-10-23T10:42:48.765Z,21.70
2022-10-23T10:45:18.089Z,15.30
2022-10-23T10:48:32.357Z,10.32
2022-10-23T10:51:21.481Z,13.85
2022-10-23T10:54:12.272Z,13.50
2022-10-23T10:56:42.324Z,12.05
2022-10-23T10:59:15.013Z,10.25
2022-10-23T11:02:02.234Z,14.65
2022-10-23T11:04:53.377Z,10.98
2022-10-23T11:07:23.024Z,9.95
2022-10-23T11:09:49.909Z,12.27
2022-10-23T11:12:27.838Z,14.20
2022-10-23T11:14:54.506Z,10.85
2022-10-23T11:17:36.749Z,17.35
2022-10-23T11:20:19.202Z,10.50
2022-10-23T11:22:54.251Z,16.65
2022-10-23T11:25:58.020Z,11.50
2022-10-23T11:28:33.411Z,14.93
2022-10-23T11:31:00.022Z,9.18
2022-10-23T11:33:51.902Z,16.42
2022-10-23T11:36:20.404Z,16.95
2022-10-23T11:38:49.564Z,9.32
2022-10-23T11:41:25.572Z,12.68
2022-10-23T11:44:01.795Z,11.48
2022-10-23T11:46:32.850Z,13.48
2022-10-23T11:49:02.592Z,11.48
2022-10-23T11:51:34.043Z,15.88
2022-10-23T11:54:16.235Z,15.98
2022-10-23T11:57:10.541Z,14.05
2022-10-23T11:59:49.403Z,10.00
2022-10-23T12:02:21.945Z,9.25
2022-10-23T12:04:51.584Z,14.38
2022-10-23T12:07:28.673Z,8.73
2022-10-23T12:10:01.455Z,12.75
2022-10-23T12:12:42.618Z,14.20
2022-10-23T12:15:14.646Z,10.85
2022-10-23T12:17:42.935Z,9.93
2022-10-23T12:20:12.539Z,11.40
2022-10-23T12:22:44.944Z,11.25
2022-10-23T12:25:24.135Z,13.75
2022-10-23T12:28:03.909Z,8.85
2022-10-23T12:30:45.185Z,11.15
2022-10-23T12:33:19.740Z,8.27
2022-10-23T12:35:49.941Z,11.95
2022-10-23T12:38:19.461Z,13.23
2022-10-23T12:40:50.727Z,9.70
2022-10-23T12:43:24.965Z,8.73
2022-10-23T12:45:52.013Z,10.75
2022-10-23T12:48:21.364Z,13.82
2022-10-23T12:50:50.643Z,11.73
2022-10-23T12:53:19.268Z,11.75
2022-10-23T12:58:35.205Z,15.63
2022-10-23T13:01:06.721Z,14.27
2022-10-23T13:03:34.544Z,14.27
2022-10-23T13:06:03.163Z,11.50
2022-10-23T13:11:10.150Z,20.23
2022-10-23T13:13:36.788Z,13.73
2022-10-23T13:16:14.466Z,12.95
2022-10-23T13:18:42.399Z,11.93
2022-10-23T13:21:17.473Z,10.25
2022-10-23T13:23:44.241Z,13.82
2022-10-23T13:26:29.660Z,16.15
2022-10-23T13:28:56.964Z,8.00
2022-10-23T13:31:32.155Z,13.65
2022-10-23T13:34:01.839Z,11.52
2022-10-23T13:36:31.142Z,12.48
2022-10-23T13:39:09.882Z,12.40
2022-10-23T13:41:40.037Z,13.90
2022-10-23T13:44:07.156Z,11.05
2022-10-23T13:46:33.965Z,12.38
2022-10-23T13:49:00.641Z,10.30
2022-10-23T13:51:32.830Z,21.35
2022-10-23T13:53:59.493Z,17.73
2022-10-23T13:56:27.416Z,13.50
2022-10-23T13:58:54.203Z,13.75
2022-10-23T14:01:23.890Z,10.45
2022-10-23T14:03:51.684Z,9.70
2022-10-23T14:06:18.399Z,11.10
2022-10-23T14:08:45.325Z,12.50
2022-10-23T14:13:45.513Z,10.25
2022-10-23T14:16:14.129Z,7.57
2022-10-23T14:18:40.953Z,11.95
2022-10-23T14:21:09.263Z,20.35
2022-10-23T14:23:35.959Z,12.45
2022-10-23T14:26:08.051Z,8.93
2022-10-23T14:28:34.799Z,11.38
2022-10-23T14:31:06.299Z,11.73
2022-10-23T14:33:33.060Z,10.02
2022-10-23T14:35:59.742Z,15.27
2022-10-23T14:38:26.809Z,13.82
2022-10-23T14:40:53.577Z,11.75
2022-10-23T14:43:20.337Z,15.90
2022-10-23T14:45:46.976Z,12.05
2022-10-23T14:48:13.704Z,12.75
2022-10-23T14:50:44.844Z,17.15
2022-10-23T14:53:11.692Z,15.80
2022-10-23T14:55:38.753Z,16.90
2022-10-23T14:58:05.984Z,19.67
2022-10-23T15:00:32.622Z,13.15
2022-10-23T15:02:59.724Z,14.07
2022-10-23T15:05:26.435Z,19.13
2022-10-23T15:07:53.151Z,14.52
2022-10-23T15:10:19.770Z,15.32
2022-10-23T15:12:46.685Z,20.75
2022-10-23T15:15:13.572Z,16.45
2022-10-23T15:17:41.525Z,16.67
2022-10-23T15:20:08.869Z,12.93
2022-10-23T15:22:35.591Z,12.48
2022-10-23T15:25:02.275Z,10.90
2022-10-23T15:27:28.976Z,16.45
2022-10-23T15:29:55.668Z,16.25
2022-10-23T15:32:22.445Z,11.15
2022-10-23T15:34:49.839Z,11.18
2022-10-23T15:37:16.562Z,15.13
2022-10-23T15:39:43.424Z,17.20
2022-10-23T15:42:10.433Z,13.13
2022-10-23T15:44:37.308Z,14.27
2022-10-23T15:47:04.030Z,13.27
2022-10-23T15:49:33.129Z,11.77
2022-10-23T15:52:00.518Z,13.05
2022-10-23T15:54:30.491Z,14.07
2022-10-23T15:56:59.490Z,18.75
2022-10-23T15:59:27.086Z,15.77
2022-10-23T16:01:54.143Z,14.10
2022-10-23T16:04:21.176Z,18.70
2022-10-23T16:06:48.251Z,18.30
2022-10-23T16:09:15.602Z,12.10
2022-10-23T16:11:43.224Z,11.52
2022-10-23T16:14:15.884Z,16.83
2022-10-23T16:16:42.550Z,13.73
2022-10-23T16:19:10.715Z,17.83
2022-10-23T16:21:37.543Z,15.77
2022-10-23T16:24:06.541Z,16.50
2022-10-23T16:29:02.452Z,16.15
2022-10-23T16:31:29.900Z,14.07
2022-10-23T16:34:00.602Z,16.33
2022-10-23T16:36:28.342Z,15.48
2022-10-23T16:38:55.099Z,12.52
2022-10-23T16:41:21.808Z,18.20
2022-10-23T16:43:48.495Z,14.30
2022-10-23T16:46:18.014Z,19.95
2022-10-23T16:48:44.668Z,17.58
2022-10-23T16:51:17.953Z,15.88
2022-10-23T16:53:45.558Z,16.25
2022-10-23T16:56:17.734Z,18.48
2022-10-23T16:58:44.790Z,21.60
2022-10-23T17:01:13.202Z,16.17
2022-10-23T17:03:42.301Z,17.75
2022-10-23T17:08:38.355Z,17.45
2022-10-23T17:11:07.998Z,19.45
2022-10-23T17:13:35.983Z,20.98
2022-10-23T17:16:11.284Z,28.20
2022-10-23T17:18:42.843Z,17.20
2022-10-23T17:21:11.858Z,19.05
2022-10-23T17:23:38.598Z,20.02
2022-10-23T17:26:15.359Z,24.48
2022-10-23T17:28:43.126Z,19.45
2022-10-23T17:31:15.394Z,21.60
2022-10-23T17:33:43.061Z,18.40
2022-10-23T17:36:11.504Z,19.38
2022-10-23T17:38:40.092Z,26.65
2022-10-23T17:41:08.032Z,20.40
2022-10-23T17:43:35.898Z,20.42
2022-10-23T17:46:04.945Z,24.40
2022-10-23T17:51:08.497Z,18.33
2022-10-23T17:53:36.703Z,21.95
2022-10-23T17:56:05.888Z,16.63
2022-10-23T17:58:33.450Z,21.58
2022-10-23T18:01:11.387Z,24.23
2022-10-23T18:03:38.733Z,19.85
2022-10-23T18:06:18.956Z,22.75
2022-10-23T18:08:46.141Z,19.73
2022-10-23T18:11:33.107Z,17.10
2022-10-23T18:16:33.290Z,17.27
2022-10-23T18:19:01.600Z,15.45
2022-10-23T18:21:28.901Z,18.05
2022-10-23T18:23:55.757Z,16.98
2022-10-23T18:26:24.918Z,13.80
2022-10-23T18:28:54.074Z,22.42
2022-10-23T18:31:21.530Z,19.95
2022-10-23T18:33:48.293Z,21.17
2022-10-23T18:36:23.620Z,18.88
2022-10-23T18:38:51.148Z,27.08
2022-10-23T18:41:19.297Z,30.73
2022-10-23T18:43:46.214Z,22.15
2022-10-23T18:46:13.862Z,19.30
2022-10-23T18:48:41.428Z,18.65
2022-10-23T18:51:23.281Z,19.80
2022-10-23T18:53:50.224Z,25.67
2022-10-23T18:56:23.237Z,26.88
2022-10-23T18:58:50.923Z,25.50
2022-10-23T19:01:19.058Z,25.50
2022-10-23T19:03:46.194Z,26.67
2022-10-23T19:06:13.380Z,19.63
2022-10-23T19:08:41.878Z,25.13
2022-10-23T19:11:09.173Z,28.42
2022-10-23T19:13:40.438Z,60.53
2022-10-23T19:16:29.252Z,54.10
2022-10-23T19:18:59.295Z,54.58
2022-10-23T19:21:31.757Z,33.47
2022-10-23T19:24:00.887Z,30.17
2022-10-23T19:26:30.399Z,28.45
2022-10-23T19:28:57.623Z,29.95
2022-10-23T19:31:26.482Z,23.52
2022-10-23T19:33:53.907Z,30.55
2022-10-23T19:36:23.367Z,25.98
2022-10-23T19:38:50.619Z,23.10
2022-10-23T19:41:18.376Z,35.30
2022-10-23T19:43:45.052Z,23.70
2022-10-23T19:46:12.404Z,22.25
2022-10-23T19:48:44.449Z,18.15
2022-10-23T19:51:13.280Z,24.17
2022-10-23T19:53:41.342Z,19.02
2022-10-23T19:56:09.859Z,25.23
2022-10-23T19:58:36.603Z,30.08
2022-10-23T20:01:15.743Z,23.52
2022-10-23T20:03:44.623Z,26.83
2022-10-23T20:06:13.025Z,20.55
2022-10-23T20:08:40.621Z,26.90
2022-10-23T20:11:08.165Z,23.13
2022-10-23T20:13:35.056Z,24.23
2022-10-23T20:16:01.765Z,20.65
2022-10-23T20:18:28.435Z,27.88
2022-10-23T20:20:55.176Z,25.80
2022-10-23T20:23:21.974Z,27.30
2022-10-23T20:25:48.673Z,27.00
2022-10-23T20:28:15.462Z,23.90
2022-10-23T20:30:42.715Z,22.50
2022-10-23T20:33:09.413Z,26.02
2022-10-23T20:35:41.067Z,23.55
2022-10-23T20:38:08.032Z,23.10
2022-10-23T20:40:34.768Z,21.88
2022-10-23T20:43:01.444Z,27.75
2022-10-23T20:45:28.144Z,31.10
2022-10-23T20:47:54.837Z,25.15
2022-10-23T20:50:23.875Z,27.08
2022-10-23T20:55:17.731Z,28.73
2022-10-23T20:57:44.634Z,23.98
2022-10-23T21:00:11.944Z,38.10
2022-10-23T21:02:38.649Z,29.52
2022-10-23T21:05:06.011Z,24.15
2022-10-23T21:07:32.731Z,24.15
2022-10-23T21:09:59.434Z,22.40
2022-10-23T21:12:26.122Z,28.48
2022-10-23T21:14:53.649Z,24.10
2022-10-23T21:17:20.817Z,27.83
2022-10-23T21:19:47.566Z,25.52
2022-10-23T21:22:14.314Z,31.95
2022-10-23T21:24:40.945Z,26.60
2022-10-23T21:27:07.622Z,24.92
2022-10-23T21:29:34.356Z,25.65
2022-10-23T21:32:01.738Z,22.58
2022-10-23T21:34:28.798Z,21.80
2022-10-23T21:39:43.261Z,25.25
2022-10-23T21:42:11.068Z,18.02
2022-10-23T21:44:37.894Z,17.25
2022-10-23T21:47:04.644Z,17.83
2022-10-23T21:49:31.674Z,23.00
2022-10-23T21:51:58.362Z,23.85
2022-10-23T21:54:25.018Z,26.33
2022-10-23T21:56:53.866Z,19.83
2022-10-23T22:04:17.457Z,17.42
2022-10-23T22:06:45.335Z,23.23
2022-10-23T22:09:14.350Z,21.55
2022-10-23T22:11:41.672Z,19.13
2022-10-23T22:14:08.487Z,18.20
2022-10-23T22:16:35.156Z,24.15
2022-10-23T22:19:01.772Z,15.50
2022-10-23T22:21:29.553Z,21.65
2022-10-23T22:23:58.152Z,27.58
2022-10-23T22:26:28.923Z,33.40
2022-10-23T22:28:58.108Z,26.92
2022-10-23T22:31:27.736Z,34.22
2022-10-23T22:33:55.221Z,31.13
2022-10-23T22:36:21.925Z,25.88
2022-10-23T22:38:48.873Z,20.45
2022-10-23T22:41:16.331Z,24.58
2022-10-23T22:43:42.962Z,22.50
2022-10-23T22:46:12.204Z,21.15
2022-10-23T22:48:39.292Z,22.15
2022-10-23T22:51:08.884Z,19.73
2022-10-23T22:53:35.965Z,14.82
2022-10-23T22:56:06.831Z,15.93
2022-10-23T22:58:33.572Z,18.17
2022-10-23T23:01:32.983Z,17.20
2022-10-23T23:04:08.801Z,18.17
2022-10-23T23:06:47.173Z,16.58
2022-10-23T23:09:17.895Z,13.00
2022-10-23T23:11:51.549Z,12.85
2022-10-23T23:14:22.961Z,12.10
2022-10-23T23:16:51.724Z,15.18
2022-10-23T23:19:18.331Z,14.13
2022-10-23T23:21:44.967Z,12.68
2022-10-23T23:24:12.209Z,14.48
2022-10-23T23:26:39.044Z,18.65
2022-10-23T23:29:05.790Z,19.73
2022-10-23T23:31:32.466Z,17.70
2022-10-23T23:33:59.289Z,18.63
2022-10-23T23:36:27.098Z,18.48
2022-10-23T23:38:55.651Z,21.73
2022-10-23T23:41:22.635Z,15.35
2022-10-23T23:43:49.571Z,16.55
2022-10-23T23:46:17.077Z,16.80
2022-10-23T23:48:47.912Z,22.42
2022-10-23T23:51:19.865Z,16.73
2022-10-23T23:53:47.817Z,13.98
2022-10-23T23:56:14.599Z,16.25
2022-10-23T23:58:41.533Z,18.35
